Airfield :
LOGIN :

Register | Disclaimer

   EN    FR    IT 

 










Legend :    VFR   Marginal VFR   IFR   Intensive IFR   Very Intensive IFR
Visi :
Ceiling :
>= 8 km
>= 3000ft
5 to 8 km
1000 to 3000 ft
1500m to 5 km
500 to 1000 ft
800 to 1500m
200 to 500 ft
< 800m
< 200 ft
Symbols :   Thunderstorms  Fog  Heavy snow  Heavy precipitations  Wind > 20 kt
SIGMETs :     Misc.  Thunderstorms  Icing  Turbulence  Mountain Waves  Volcanic Ashes






- Airport Elevation : 1475 ft


LSZC - Buochs Stans

CURRENT METAR :
  • 040950Z AUTO 09004KT 040V170 9999 NCD 20/13 Q1022

EXPIRED METARs :
  • 040920Z AUTO VRB02KT 9999 FEW060 19/12 Q1022
  • 040850Z AUTO VRB01KT 9999 NCD 19/13 Q1022
  • 040820Z AUTO VRB03KT 9999 FEW060 18/13 Q1022
  • 040750Z AUTO VRB02KT 9999 NCD 18/13 Q1022
  • 040720Z AUTO VRB02KT 9999 OVC060 19/14 Q1022

Expired Forecast.



MET'MAP, your aeronautical weather chart ! - Copyright ORBIFLY December 2007 - Disclaimer

ORBIFLY MET'MAP TEAM :

Programming & Development : Alexandra Zaïnal
Concept & original design : Baudouin d'Aumeries
Assistance for programming : Marc-Olivier Méhu
Technical & hardware support : Manuel Goepfert

Contact : metmap@orbifly.com




SOURCES & CREDITS :

   NOAA